sensor_id;sensor_type;location;lat;lon;timestamp;P1;durP1;ratioP1;P2;durP2;ratioP2
11084;SDS011;5596;46.826;8.650;2022-12-07T00:00:53;5.17;;;3.40;;
11084;SDS011;5596;46.826;8.650;2022-12-07T00:03:20;5.57;;;3.90;;
11084;SDS011;5596;46.826;8.650;2022-12-07T00:05:47;5.33;;;2.70;;
11084;SDS011;5596;46.826;8.650;2022-12-07T00:08:14;3.50;;;2.50;;
11084;SDS011;5596;46.826;8.650;2022-12-07T00:10:43;3.07;;;2.50;;
11084;SDS011;5596;46.826;8.650;2022-12-07T00:13:10;3.47;;;2.37;;
11084;SDS011;5596;46.826;8.650;2022-12-07T00:15:37;3.87;;;2.70;;
11084;SDS011;5596;46.826;8.650;2022-12-07T00:18:04;5.63;;;2.90;;
11084;SDS011;5596;46.826;8.650;2022-12-07T00:20:34;3.60;;;2.33;;
11084;SDS011;5596;46.826;8.650;2022-12-07T00:23:01;2.87;;;2.13;;
11084;SDS011;5596;46.826;8.650;2022-12-07T00:25:29;3.57;;;2.20;;
11084;SDS011;5596;46.826;8.650;2022-12-07T00:27:58;4.67;;;2.40;;
11084;SDS011;5596;46.826;8.650;2022-12-07T00:30:25;3.20;;;2.37;;
11084;SDS011;5596;46.826;8.650;2022-12-07T00:32:52;3.23;;;2.40;;
11084;SDS011;5596;46.826;8.650;2022-12-07T00:35:19;2.97;;;2.30;;
11084;SDS011;5596;46.826;8.650;2022-12-07T00:37:46;5.80;;;2.30;;
11084;SDS011;5596;46.826;8.650;2022-12-07T00:40:13;3.13;;;2.50;;
11084;SDS011;5596;46.826;8.650;2022-12-07T00:42:40;3.57;;;2.20;;
11084;SDS011;5596;46.826;8.650;2022-12-07T00:45:09;2.70;;;2.30;;
11084;SDS011;5596;46.826;8.650;2022-12-07T00:47:36;3.43;;;2.40;;
11084;SDS011;5596;46.826;8.650;2022-12-07T00:50:04;4.03;;;2.30;;
11084;SDS011;5596;46.826;8.650;2022-12-07T00:52:32;2.90;;;2.40;;
11084;SDS011;5596;46.826;8.650;2022-12-07T00:54:59;3.07;;;2.43;;
11084;SDS011;5596;46.826;8.650;2022-12-07T00:57:27;3.30;;;2.50;;
11084;SDS011;5596;46.826;8.650;2022-12-07T00:59:56;3.67;;;2.60;;
11084;SDS011;5596;46.826;8.650;2022-12-07T01:02:27;4.83;;;2.67;;
11084;SDS011;5596;46.826;8.650;2022-12-07T01:04:54;4.13;;;2.67;;
11084;SDS011;5596;46.826;8.650;2022-12-07T01:07:21;3.73;;;2.77;;
11084;SDS011;5596;46.826;8.650;2022-12-07T01:09:48;4.03;;;3.07;;
11084;SDS011;5596;46.826;8.650;2022-12-07T01:12:15;6.17;;;3.10;;
11084;SDS011;5596;46.826;8.650;2022-12-07T01:14:42;3.80;;;2.57;;
11084;SDS011;5596;46.826;8.650;2022-12-07T01:17:09;4.93;;;2.90;;
11084;SDS011;5596;46.826;8.650;2022-12-07T01:19:39;4.17;;;3.00;;
11084;SDS011;5596;46.826;8.650;2022-12-07T01:22:06;4.60;;;3.20;;
11084;SDS011;5596;46.826;8.650;2022-12-07T01:24:33;4.57;;;3.30;;
11084;SDS011;5596;46.826;8.650;2022-12-07T01:27:00;4.03;;;3.13;;
11084;SDS011;5596;46.826;8.650;2022-12-07T01:29:27;3.90;;;3.00;;
11084;SDS011;5596;46.826;8.650;2022-12-07T01:31:54;4.67;;;3.30;;
11084;SDS011;5596;46.826;8.650;2022-12-07T01:34:22;4.50;;;3.57;;
11084;SDS011;5596;46.826;8.650;2022-12-07T01:36:50;3.97;;;3.30;;
11084;SDS011;5596;46.826;8.650;2022-12-07T01:39:17;4.30;;;3.03;;
11084;SDS011;5596;46.826;8.650;2022-12-07T01:41:44;4.90;;;3.60;;
11084;SDS011;5596;46.826;8.650;2022-12-07T01:44:18;5.27;;;3.60;;
11084;SDS011;5596;46.826;8.650;2022-12-07T01:46:47;5.33;;;3.50;;
11084;SDS011;5596;46.826;8.650;2022-12-07T01:49:21;6.13;;;3.77;;
11084;SDS011;5596;46.826;8.650;2022-12-07T01:51:57;5.33;;;3.80;;
11084;SDS011;5596;46.826;8.650;2022-12-07T01:54:28;4.70;;;3.43;;
11084;SDS011;5596;46.826;8.650;2022-12-07T01:56:55;5.40;;;4.17;;
11084;SDS011;5596;46.826;8.650;2022-12-07T01:59:24;4.53;;;3.77;;
11084;SDS011;5596;46.826;8.650;2022-12-07T02:01:52;5.33;;;3.33;;
11084;SDS011;5596;46.826;8.650;2022-12-07T02:04:21;6.00;;;3.83;;
11084;SDS011;5596;46.826;8.650;2022-12-07T02:06:49;5.37;;;3.60;;
11084;SDS011;5596;46.826;8.650;2022-12-07T02:09:19;5.77;;;3.80;;
11084;SDS011;5596;46.826;8.650;2022-12-07T02:11:46;5.03;;;3.67;;
11084;SDS011;5596;46.826;8.650;2022-12-07T02:14:13;5.60;;;4.10;;
11084;SDS011;5596;46.826;8.650;2022-12-07T02:16:44;5.10;;;3.50;;
11084;SDS011;5596;46.826;8.650;2022-12-07T02:22:21;6.07;;;4.17;;
11084;SDS011;5596;46.826;8.650;2022-12-07T02:25:07;4.87;;;3.77;;
11084;SDS011;5596;46.826;8.650;2022-12-07T02:27:43;7.40;;;4.13;;
11084;SDS011;5596;46.826;8.650;2022-12-07T02:30:15;6.50;;;4.23;;
11084;SDS011;5596;46.826;8.650;2022-12-07T02:32:48;5.37;;;4.20;;
11084;SDS011;5596;46.826;8.650;2022-12-07T02:35:21;5.73;;;3.57;;
11084;SDS011;5596;46.826;8.650;2022-12-07T02:37:58;8.00;;;4.30;;
11084;SDS011;5596;46.826;8.650;2022-12-07T02:40:35;4.53;;;3.70;;
11084;SDS011;5596;46.826;8.650;2022-12-07T02:43:07;5.33;;;3.67;;
11084;SDS011;5596;46.826;8.650;2022-12-07T02:45:40;7.57;;;3.70;;
11084;SDS011;5596;46.826;8.650;2022-12-07T02:48:12;6.57;;;3.90;;
11084;SDS011;5596;46.826;8.650;2022-12-07T02:50:44;5.40;;;3.87;;
11084;SDS011;5596;46.826;8.650;2022-12-07T02:55:57;4.53;;;3.50;;
11084;SDS011;5596;46.826;8.650;2022-12-07T02:58:29;5.43;;;3.60;;
11084;SDS011;5596;46.826;8.650;2022-12-07T03:01:08;4.40;;;3.50;;
11084;SDS011;5596;46.826;8.650;2022-12-07T03:03:48;4.10;;;3.33;;
11084;SDS011;5596;46.826;8.650;2022-12-07T03:06:26;6.00;;;3.43;;
11084;SDS011;5596;46.826;8.650;2022-12-07T03:09:01;4.57;;;3.33;;
11084;SDS011;5596;46.826;8.650;2022-12-07T03:11:40;4.70;;;3.50;;
11084;SDS011;5596;46.826;8.650;2022-12-07T03:14:13;4.73;;;3.40;;
11084;SDS011;5596;46.826;8.650;2022-12-07T03:16:47;5.00;;;3.67;;
11084;SDS011;5596;46.826;8.650;2022-12-07T03:19:21;4.67;;;3.40;;
11084;SDS011;5596;46.826;8.650;2022-12-07T03:21:51;4.90;;;3.57;;
11084;SDS011;5596;46.826;8.650;2022-12-07T03:24:24;4.57;;;3.37;;
11084;SDS011;5596;46.826;8.650;2022-12-07T03:26:56;4.90;;;3.50;;
11084;SDS011;5596;46.826;8.650;2022-12-07T03:29:30;5.17;;;3.43;;
11084;SDS011;5596;46.826;8.650;2022-12-07T03:32:03;4.67;;;3.63;;
11084;SDS011;5596;46.826;8.650;2022-12-07T03:34:36;4.33;;;3.33;;
11084;SDS011;5596;46.826;8.650;2022-12-07T03:37:09;5.10;;;3.20;;
11084;SDS011;5596;46.826;8.650;2022-12-07T03:39:44;5.30;;;3.03;;
11084;SDS011;5596;46.826;8.650;2022-12-07T03:42:26;4.10;;;3.13;;
11084;SDS011;5596;46.826;8.650;2022-12-07T03:44:53;4.33;;;2.87;;
11084;SDS011;5596;46.826;8.650;2022-12-07T03:47:23;4.23;;;3.07;;
11084;SDS011;5596;46.826;8.650;2022-12-07T03:49:57;3.67;;;2.97;;
11084;SDS011;5596;46.826;8.650;2022-12-07T03:52:29;3.53;;;2.80;;
11084;SDS011;5596;46.826;8.650;2022-12-07T03:55:03;4.07;;;3.20;;
11084;SDS011;5596;46.826;8.650;2022-12-07T03:57:36;4.63;;;3.43;;
11084;SDS011;5596;46.826;8.650;2022-12-07T04:00:09;3.97;;;2.83;;
11084;SDS011;5596;46.826;8.650;2022-12-07T04:02:41;3.70;;;2.77;;
11084;SDS011;5596;46.826;8.650;2022-12-07T04:05:09;3.83;;;3.10;;
11084;SDS011;5596;46.826;8.650;2022-12-07T04:07:36;3.90;;;2.83;;
11084;SDS011;5596;46.826;8.650;2022-12-07T04:10:04;3.60;;;2.70;;
11084;SDS011;5596;46.826;8.650;2022-12-07T04:12:32;3.47;;;2.80;;
11084;SDS011;5596;46.826;8.650;2022-12-07T04:14:59;3.67;;;3.00;;
11084;SDS011;5596;46.826;8.650;2022-12-07T04:17:27;4.60;;;3.07;;
11084;SDS011;5596;46.826;8.650;2022-12-07T04:19:55;9.17;;;3.13;;
11084;SDS011;5596;46.826;8.650;2022-12-07T04:22:22;4.90;;;3.23;;
11084;SDS011;5596;46.826;8.650;2022-12-07T04:24:50;2.90;;;2.50;;
11084;SDS011;5596;46.826;8.650;2022-12-07T04:27:17;4.03;;;2.87;;
11084;SDS011;5596;46.826;8.650;2022-12-07T04:29:44;3.40;;;2.80;;
11084;SDS011;5596;46.826;8.650;2022-12-07T04:32:11;4.53;;;3.03;;
11084;SDS011;5596;46.826;8.650;2022-12-07T04:34:38;4.30;;;3.13;;
11084;SDS011;5596;46.826;8.650;2022-12-07T04:37:07;3.97;;;2.90;;
11084;SDS011;5596;46.826;8.650;2022-12-07T04:39:34;9.17;;;7.90;;
11084;SDS011;5596;46.826;8.650;2022-12-07T04:42:01;5.03;;;3.17;;
11084;SDS011;5596;46.826;8.650;2022-12-07T04:44:29;7.43;;;4.07;;
11084;SDS011;5596;46.826;8.650;2022-12-07T04:46:56;4.20;;;3.33;;
11084;SDS011;5596;46.826;8.650;2022-12-07T04:49:24;4.30;;;3.27;;
11084;SDS011;5596;46.826;8.650;2022-12-07T04:51:52;3.83;;;2.73;;
11084;SDS011;5596;46.826;8.650;2022-12-07T04:54:21;4.13;;;3.30;;
11084;SDS011;5596;46.826;8.650;2022-12-07T04:56:48;3.87;;;3.10;;
11084;SDS011;5596;46.826;8.650;2022-12-07T04:59:15;3.77;;;3.10;;
11084;SDS011;5596;46.826;8.650;2022-12-07T05:01:44;4.80;;;3.57;;
11084;SDS011;5596;46.826;8.650;2022-12-07T05:04:11;5.50;;;2.77;;
11084;SDS011;5596;46.826;8.650;2022-12-07T05:06:38;5.10;;;3.13;;
11084;SDS011;5596;46.826;8.650;2022-12-07T05:09:05;6.60;;;4.13;;
11084;SDS011;5596;46.826;8.650;2022-12-07T05:11:33;3.97;;;2.83;;
11084;SDS011;5596;46.826;8.650;2022-12-07T05:14:09;4.27;;;2.60;;
11084;SDS011;5596;46.826;8.650;2022-12-07T05:16:40;4.90;;;2.87;;
11084;SDS011;5596;46.826;8.650;2022-12-07T05:19:08;6.03;;;3.53;;
11084;SDS011;5596;46.826;8.650;2022-12-07T05:21:35;3.90;;;2.80;;
11084;SDS011;5596;46.826;8.650;2022-12-07T05:24:03;4.10;;;3.10;;
11084;SDS011;5596;46.826;8.650;2022-12-07T05:26:33;4.27;;;3.20;;
11084;SDS011;5596;46.826;8.650;2022-12-07T05:29:00;5.53;;;2.80;;
11084;SDS011;5596;46.826;8.650;2022-12-07T05:31:28;3.87;;;2.83;;
11084;SDS011;5596;46.826;8.650;2022-12-07T05:33:56;4.03;;;2.67;;
11084;SDS011;5596;46.826;8.650;2022-12-07T05:36:23;4.93;;;2.97;;
11084;SDS011;5596;46.826;8.650;2022-12-07T05:38:50;4.90;;;3.50;;
11084;SDS011;5596;46.826;8.650;2022-12-07T05:41:18;5.40;;;3.23;;
11084;SDS011;5596;46.826;8.650;2022-12-07T05:44:04;3.47;;;2.97;;
11084;SDS011;5596;46.826;8.650;2022-12-07T05:46:32;4.83;;;3.27;;
11084;SDS011;5596;46.826;8.650;2022-12-07T05:49:00;5.87;;;3.20;;
11084;SDS011;5596;46.826;8.650;2022-12-07T05:51:27;4.13;;;2.97;;
11084;SDS011;5596;46.826;8.650;2022-12-07T05:53:54;4.47;;;2.90;;
11084;SDS011;5596;46.826;8.650;2022-12-07T05:56:21;4.50;;;2.90;;
11084;SDS011;5596;46.826;8.650;2022-12-07T05:58:49;4.17;;;2.77;;
11084;SDS011;5596;46.826;8.650;2022-12-07T06:01:35;4.20;;;2.80;;
11084;SDS011;5596;46.826;8.650;2022-12-07T06:04:02;5.83;;;2.87;;
11084;SDS011;5596;46.826;8.650;2022-12-07T06:06:29;3.50;;;2.33;;
11084;SDS011;5596;46.826;8.650;2022-12-07T06:08:56;4.47;;;2.87;;
11084;SDS011;5596;46.826;8.650;2022-12-07T06:11:23;3.93;;;2.70;;
11084;SDS011;5596;46.826;8.650;2022-12-07T06:14:08;4.00;;;2.13;;
11084;SDS011;5596;46.826;8.650;2022-12-07T06:16:36;3.00;;;2.27;;
11084;SDS011;5596;46.826;8.650;2022-12-07T06:19:05;3.07;;;2.20;;
11084;SDS011;5596;46.826;8.650;2022-12-07T06:21:32;5.83;;;2.77;;
11084;SDS011;5596;46.826;8.650;2022-12-07T06:23:59;7.53;;;4.50;;
11084;SDS011;5596;46.826;8.650;2022-12-07T06:26:27;12.43;;;6.60;;
11084;SDS011;5596;46.826;8.650;2022-12-07T06:28:54;9.87;;;5.40;;
11084;SDS011;5596;46.826;8.650;2022-12-07T06:31:21;4.63;;;3.00;;
11084;SDS011;5596;46.826;8.650;2022-12-07T06:33:50;4.20;;;2.83;;
11084;SDS011;5596;46.826;8.650;2022-12-07T06:36:17;5.07;;;2.83;;
11084;SDS011;5596;46.826;8.650;2022-12-07T06:38:44;4.10;;;3.33;;
11084;SDS011;5596;46.826;8.650;2022-12-07T06:41:11;4.13;;;3.17;;
11084;SDS011;5596;46.826;8.650;2022-12-07T06:43:39;3.23;;;2.80;;
11084;SDS011;5596;46.826;8.650;2022-12-07T06:46:07;4.47;;;3.20;;
11084;SDS011;5596;46.826;8.650;2022-12-07T06:48:34;4.30;;;2.70;;
11084;SDS011;5596;46.826;8.650;2022-12-07T06:51:02;7.13;;;2.80;;
11084;SDS011;5596;46.826;8.650;2022-12-07T06:53:31;3.07;;;2.37;;
11084;SDS011;5596;46.826;8.650;2022-12-07T06:55:58;3.67;;;2.20;;
11084;SDS011;5596;46.826;8.650;2022-12-07T06:58:26;2.77;;;2.10;;
11084;SDS011;5596;46.826;8.650;2022-12-07T07:00:53;2.97;;;2.63;;
11084;SDS011;5596;46.826;8.650;2022-12-07T07:03:20;3.67;;;2.17;;
11084;SDS011;5596;46.826;8.650;2022-12-07T07:05:47;2.53;;;2.13;;
11084;SDS011;5596;46.826;8.650;2022-12-07T07:08:19;3.47;;;2.50;;
11084;SDS011;5596;46.826;8.650;2022-12-07T07:10:46;4.57;;;2.47;;
11084;SDS011;5596;46.826;8.650;2022-12-07T07:13:13;4.33;;;3.00;;
11084;SDS011;5596;46.826;8.650;2022-12-07T07:15:40;3.10;;;2.40;;
11084;SDS011;5596;46.826;8.650;2022-12-07T07:18:07;5.57;;;2.40;;
11084;SDS011;5596;46.826;8.650;2022-12-07T07:20:34;3.80;;;2.30;;
11084;SDS011;5596;46.826;8.650;2022-12-07T07:23:02;3.00;;;2.03;;
11084;SDS011;5596;46.826;8.650;2022-12-07T07:25:30;3.17;;;2.10;;
11084;SDS011;5596;46.826;8.650;2022-12-07T07:27:58;4.00;;;2.50;;
11084;SDS011;5596;46.826;8.650;2022-12-07T07:30:26;2.63;;;2.17;;
11084;SDS011;5596;46.826;8.650;2022-12-07T07:32:56;4.00;;;2.90;;
11084;SDS011;5596;46.826;8.650;2022-12-07T07:35:23;3.10;;;2.23;;
11084;SDS011;5596;46.826;8.650;2022-12-07T07:37:50;3.93;;;2.77;;
11084;SDS011;5596;46.826;8.650;2022-12-07T07:40:17;3.97;;;2.60;;
11084;SDS011;5596;46.826;8.650;2022-12-07T07:42:48;3.60;;;2.63;;
11084;SDS011;5596;46.826;8.650;2022-12-07T07:45:16;3.67;;;2.50;;
11084;SDS011;5596;46.826;8.650;2022-12-07T07:47:43;3.57;;;2.63;;
11084;SDS011;5596;46.826;8.650;2022-12-07T07:50:10;4.67;;;2.97;;
11084;SDS011;5596;46.826;8.650;2022-12-07T07:52:37;3.93;;;3.07;;
11084;SDS011;5596;46.826;8.650;2022-12-07T07:55:05;5.53;;;2.77;;
11084;SDS011;5596;46.826;8.650;2022-12-07T07:57:33;4.67;;;2.80;;
11084;SDS011;5596;46.826;8.650;2022-12-07T08:00:02;2.97;;;2.60;;
11084;SDS011;5596;46.826;8.650;2022-12-07T08:02:37;4.23;;;2.83;;
11084;SDS011;5596;46.826;8.650;2022-12-07T08:05:05;4.80;;;3.13;;
11084;SDS011;5596;46.826;8.650;2022-12-07T08:07:33;3.97;;;2.83;;
11084;SDS011;5596;46.826;8.650;2022-12-07T08:10:00;4.83;;;3.27;;
11084;SDS011;5596;46.826;8.650;2022-12-07T08:12:27;5.37;;;3.57;;
11084;SDS011;5596;46.826;8.650;2022-12-07T08:14:54;8.13;;;4.73;;
11084;SDS011;5596;46.826;8.650;2022-12-07T08:17:23;6.20;;;4.70;;
11084;SDS011;5596;46.826;8.650;2022-12-07T08:19:50;6.60;;;4.60;;
11084;SDS011;5596;46.826;8.650;2022-12-07T08:22:17;6.80;;;4.77;;
11084;SDS011;5596;46.826;8.650;2022-12-07T08:24:45;5.90;;;3.80;;
11084;SDS011;5596;46.826;8.650;2022-12-07T08:27:12;5.73;;;3.40;;
11084;SDS011;5596;46.826;8.650;2022-12-07T08:29:39;4.93;;;3.73;;
11084;SDS011;5596;46.826;8.650;2022-12-07T08:32:06;3.47;;;2.90;;
11084;SDS011;5596;46.826;8.650;2022-12-07T08:34:35;3.97;;;2.80;;
11084;SDS011;5596;46.826;8.650;2022-12-07T08:37:02;3.90;;;2.90;;
11084;SDS011;5596;46.826;8.650;2022-12-07T08:39:29;3.87;;;2.70;;
11084;SDS011;5596;46.826;8.650;2022-12-07T08:41:56;5.50;;;3.07;;
11084;SDS011;5596;46.826;8.650;2022-12-07T08:44:23;3.63;;;2.93;;
11084;SDS011;5596;46.826;8.650;2022-12-07T08:46:51;4.60;;;2.90;;
11084;SDS011;5596;46.826;8.650;2022-12-07T08:49:21;4.57;;;3.20;;
11084;SDS011;5596;46.826;8.650;2022-12-07T08:51:54;4.57;;;3.20;;
11084;SDS011;5596;46.826;8.650;2022-12-07T08:54:22;4.47;;;2.77;;
11084;SDS011;5596;46.826;8.650;2022-12-07T08:56:49;6.13;;;2.80;;
11084;SDS011;5596;46.826;8.650;2022-12-07T08:59:18;5.43;;;3.87;;
11084;SDS011;5596;46.826;8.650;2022-12-07T09:01:46;6.43;;;3.27;;
11084;SDS011;5596;46.826;8.650;2022-12-07T09:04:13;5.07;;;3.20;;
11084;SDS011;5596;46.826;8.650;2022-12-07T09:06:42;4.40;;;2.90;;
11084;SDS011;5596;46.826;8.650;2022-12-07T09:09:10;5.27;;;2.60;;
11084;SDS011;5596;46.826;8.650;2022-12-07T09:11:39;4.97;;;2.70;;
11084;SDS011;5596;46.826;8.650;2022-12-07T09:14:06;4.23;;;3.00;;
11084;SDS011;5596;46.826;8.650;2022-12-07T09:16:33;4.53;;;2.50;;
11084;SDS011;5596;46.826;8.650;2022-12-07T09:19:00;3.43;;;2.30;;
11084;SDS011;5596;46.826;8.650;2022-12-07T09:21:28;4.10;;;2.77;;
11084;SDS011;5596;46.826;8.650;2022-12-07T09:23:55;4.47;;;2.90;;
11084;SDS011;5596;46.826;8.650;2022-12-07T09:26:23;3.37;;;2.53;;
11084;SDS011;5596;46.826;8.650;2022-12-07T09:28:51;2.77;;;2.10;;
11084;SDS011;5596;46.826;8.650;2022-12-07T09:31:18;3.07;;;2.40;;
11084;SDS011;5596;46.826;8.650;2022-12-07T09:33:45;3.57;;;2.60;;
11084;SDS011;5596;46.826;8.650;2022-12-07T09:36:13;3.87;;;2.30;;
11084;SDS011;5596;46.826;8.650;2022-12-07T09:38:41;3.00;;;2.43;;
11084;SDS011;5596;46.826;8.650;2022-12-07T09:41:08;4.00;;;2.47;;
11084;SDS011;5596;46.826;8.650;2022-12-07T09:43:37;3.33;;;2.20;;
11084;SDS011;5596;46.826;8.650;2022-12-07T09:46:08;3.90;;;2.27;;
11084;SDS011;5596;46.826;8.650;2022-12-07T09:48:39;3.80;;;2.40;;
11084;SDS011;5596;46.826;8.650;2022-12-07T09:51:12;3.07;;;2.17;;
11084;SDS011;5596;46.826;8.650;2022-12-07T09:53:41;3.87;;;2.00;;
11084;SDS011;5596;46.826;8.650;2022-12-07T09:56:11;3.33;;;2.20;;
11084;SDS011;5596;46.826;8.650;2022-12-07T09:58:41;3.57;;;1.97;;
11084;SDS011;5596;46.826;8.650;2022-12-07T10:01:10;3.13;;;2.50;;
11084;SDS011;5596;46.826;8.650;2022-12-07T10:03:44;3.13;;;2.33;;
11084;SDS011;5596;46.826;8.650;2022-12-07T10:06:17;3.67;;;2.30;;
11084;SDS011;5596;46.826;8.650;2022-12-07T10:08:44;2.77;;;1.90;;
11084;SDS011;5596;46.826;8.650;2022-12-07T10:11:11;2.80;;;2.10;;
11084;SDS011;5596;46.826;8.650;2022-12-07T10:13:42;3.27;;;2.03;;
11084;SDS011;5596;46.826;8.650;2022-12-07T10:16:26;4.87;;;2.53;;
11084;SDS011;5596;46.826;8.650;2022-12-07T10:19:16;2.20;;;1.90;;
11084;SDS011;5596;46.826;8.650;2022-12-07T10:21:59;3.87;;;2.37;;
11084;SDS011;5596;46.826;8.650;2022-12-07T10:24:33;3.87;;;2.37;;
11084;SDS011;5596;46.826;8.650;2022-12-07T10:27:02;3.17;;;1.73;;
11084;SDS011;5596;46.826;8.650;2022-12-07T10:29:32;3.17;;;2.40;;
11084;SDS011;5596;46.826;8.650;2022-12-07T10:32:03;4.80;;;2.23;;
11084;SDS011;5596;46.826;8.650;2022-12-07T10:34:50;3.33;;;2.37;;
11084;SDS011;5596;46.826;8.650;2022-12-07T10:37:39;2.43;;;1.80;;
11084;SDS011;5596;46.826;8.650;2022-12-07T10:40:18;4.23;;;2.20;;
11084;SDS011;5596;46.826;8.650;2022-12-07T10:42:59;2.70;;;2.17;;
11084;SDS011;5596;46.826;8.650;2022-12-07T10:45:29;2.60;;;1.90;;
11084;SDS011;5596;46.826;8.650;2022-12-07T10:47:58;4.20;;;2.23;;
11084;SDS011;5596;46.826;8.650;2022-12-07T10:50:41;2.83;;;2.00;;
11084;SDS011;5596;46.826;8.650;2022-12-07T10:53:21;4.10;;;2.17;;
11084;SDS011;5596;46.826;8.650;2022-12-07T10:59:21;5.10;;;2.30;;
11084;SDS011;5596;46.826;8.650;2022-12-07T11:02:02;6.70;;;1.90;;
11084;SDS011;5596;46.826;8.650;2022-12-07T11:04:43;4.23;;;2.47;;
11084;SDS011;5596;46.826;8.650;2022-12-07T11:07:24;3.27;;;2.40;;
11084;SDS011;5596;46.826;8.650;2022-12-07T11:10:08;3.00;;;2.17;;
11084;SDS011;5596;46.826;8.650;2022-12-07T11:12:49;4.07;;;2.30;;
11084;SDS011;5596;46.826;8.650;2022-12-07T11:15:42;2.57;;;2.00;;
11084;SDS011;5596;46.826;8.650;2022-12-07T11:18:24;4.00;;;2.43;;
11084;SDS011;5596;46.826;8.650;2022-12-07T11:20:59;3.10;;;2.70;;
11084;SDS011;5596;46.826;8.650;2022-12-07T11:23:39;5.03;;;2.90;;
11084;SDS011;5596;46.826;8.650;2022-12-07T11:26:14;3.63;;;2.77;;
11084;SDS011;5596;46.826;8.650;2022-12-07T11:28:56;5.93;;;3.07;;
11084;SDS011;5596;46.826;8.650;2022-12-07T11:31:48;3.83;;;2.80;;
11084;SDS011;5596;46.826;8.650;2022-12-07T11:34:29;5.10;;;3.20;;
11084;SDS011;5596;46.826;8.650;2022-12-07T11:37:06;4.83;;;3.63;;
11084;SDS011;5596;46.826;8.650;2022-12-07T11:39:39;5.87;;;3.70;;
11084;SDS011;5596;46.826;8.650;2022-12-07T11:42:13;4.77;;;3.70;;
11084;SDS011;5596;46.826;8.650;2022-12-07T11:44:47;5.67;;;3.60;;
11084;SDS011;5596;46.826;8.650;2022-12-07T11:47:21;7.10;;;3.90;;
11084;SDS011;5596;46.826;8.650;2022-12-07T11:49:56;6.43;;;4.40;;
11084;SDS011;5596;46.826;8.650;2022-12-07T11:52:30;6.10;;;3.80;;
11084;SDS011;5596;46.826;8.650;2022-12-07T11:55:15;5.63;;;3.53;;
11084;SDS011;5596;46.826;8.650;2022-12-07T11:57:50;4.07;;;2.97;;
11084;SDS011;5596;46.826;8.650;2022-12-07T12:00:21;4.73;;;3.50;;
11084;SDS011;5596;46.826;8.650;2022-12-07T12:02:49;5.90;;;3.83;;
11084;SDS011;5596;46.826;8.650;2022-12-07T12:05:25;6.10;;;3.33;;
11084;SDS011;5596;46.826;8.650;2022-12-07T12:07:54;5.10;;;3.60;;
11084;SDS011;5596;46.826;8.650;2022-12-07T12:10:36;4.30;;;3.20;;
11084;SDS011;5596;46.826;8.650;2022-12-07T12:13:37;9.37;;;4.00;;
11084;SDS011;5596;46.826;8.650;2022-12-07T12:16:39;3.70;;;3.10;;
11084;SDS011;5596;46.826;8.650;2022-12-07T12:19:23;6.23;;;3.03;;
11084;SDS011;5596;46.826;8.650;2022-12-07T12:21:56;6.10;;;4.03;;
11084;SDS011;5596;46.826;8.650;2022-12-07T12:24:29;5.87;;;3.30;;
11084;SDS011;5596;46.826;8.650;2022-12-07T12:27:02;7.83;;;3.63;;
11084;SDS011;5596;46.826;8.650;2022-12-07T12:29:33;5.03;;;3.30;;
11084;SDS011;5596;46.826;8.650;2022-12-07T12:34:58;4.70;;;3.33;;
11084;SDS011;5596;46.826;8.650;2022-12-07T12:37:53;6.80;;;4.63;;
11084;SDS011;5596;46.826;8.650;2022-12-07T12:40:40;6.17;;;3.63;;
11084;SDS011;5596;46.826;8.650;2022-12-07T12:55:19;5.67;;;3.80;;
11084;SDS011;5596;46.826;8.650;2022-12-07T13:04:01;5.80;;;3.20;;
11084;SDS011;5596;46.826;8.650;2022-12-07T13:06:34;5.40;;;3.10;;
11084;SDS011;5596;46.826;8.650;2022-12-07T13:09:15;4.63;;;3.17;;
11084;SDS011;5596;46.826;8.650;2022-12-07T13:11:48;5.47;;;2.87;;
11084;SDS011;5596;46.826;8.650;2022-12-07T13:14:37;5.93;;;3.03;;
11084;SDS011;5596;46.826;8.650;2022-12-07T13:17:10;6.20;;;2.77;;
11084;SDS011;5596;46.826;8.650;2022-12-07T13:25:26;6.90;;;3.80;;
11084;SDS011;5596;46.826;8.650;2022-12-07T13:28:02;5.97;;;3.50;;
11084;SDS011;5596;46.826;8.650;2022-12-07T13:30:39;5.80;;;3.77;;
11084;SDS011;5596;46.826;8.650;2022-12-07T13:33:13;6.90;;;4.30;;
11084;SDS011;5596;46.826;8.650;2022-12-07T13:35:45;4.97;;;3.27;;
11084;SDS011;5596;46.826;8.650;2022-12-07T13:38:22;5.50;;;3.33;;
11084;SDS011;5596;46.826;8.650;2022-12-07T13:40:59;5.40;;;3.37;;
11084;SDS011;5596;46.826;8.650;2022-12-07T13:43:43;7.43;;;3.63;;
11084;SDS011;5596;46.826;8.650;2022-12-07T13:46:11;5.07;;;3.27;;
11084;SDS011;5596;46.826;8.650;2022-12-07T13:48:43;7.37;;;4.43;;
11084;SDS011;5596;46.826;8.650;2022-12-07T13:51:20;5.40;;;3.37;;
11084;SDS011;5596;46.826;8.650;2022-12-07T13:53:49;5.70;;;3.80;;
11084;SDS011;5596;46.826;8.650;2022-12-07T13:56:18;4.87;;;3.40;;
11084;SDS011;5596;46.826;8.650;2022-12-07T13:58:48;6.97;;;4.00;;
11084;SDS011;5596;46.826;8.650;2022-12-07T14:01:15;5.87;;;3.03;;
11084;SDS011;5596;46.826;8.650;2022-12-07T14:03:43;6.13;;;3.87;;
11084;SDS011;5596;46.826;8.650;2022-12-07T14:06:15;4.73;;;3.73;;
11084;SDS011;5596;46.826;8.650;2022-12-07T14:09:08;7.93;;;4.33;;
11084;SDS011;5596;46.826;8.650;2022-12-07T14:11:43;6.23;;;3.93;;
11084;SDS011;5596;46.826;8.650;2022-12-07T14:14:13;7.07;;;3.27;;
11084;SDS011;5596;46.826;8.650;2022-12-07T14:16:43;7.50;;;3.80;;
11084;SDS011;5596;46.826;8.650;2022-12-07T14:22:09;4.67;;;3.10;;
11084;SDS011;5596;46.826;8.650;2022-12-07T14:27:48;4.67;;;3.30;;
11084;SDS011;5596;46.826;8.650;2022-12-07T14:30:22;5.23;;;3.60;;
11084;SDS011;5596;46.826;8.650;2022-12-07T14:32:52;6.50;;;3.70;;
11084;SDS011;5596;46.826;8.650;2022-12-07T14:35:21;5.43;;;3.50;;
11084;SDS011;5596;46.826;8.650;2022-12-07T14:37:48;5.13;;;3.60;;
11084;SDS011;5596;46.826;8.650;2022-12-07T14:40:17;6.90;;;4.17;;
11084;SDS011;5596;46.826;8.650;2022-12-07T14:42:46;8.63;;;5.87;;
11084;SDS011;5596;46.826;8.650;2022-12-07T14:45:17;9.03;;;4.40;;
11084;SDS011;5596;46.826;8.650;2022-12-07T14:47:47;7.47;;;4.50;;
11084;SDS011;5596;46.826;8.650;2022-12-07T14:50:16;8.73;;;4.47;;
11084;SDS011;5596;46.826;8.650;2022-12-07T14:52:46;6.20;;;4.10;;
11084;SDS011;5596;46.826;8.650;2022-12-07T14:55:18;7.67;;;4.53;;
11084;SDS011;5596;46.826;8.650;2022-12-07T14:57:50;6.43;;;4.20;;
11084;SDS011;5596;46.826;8.650;2022-12-07T15:00:18;5.77;;;3.87;;
11084;SDS011;5596;46.826;8.650;2022-12-07T15:02:48;5.63;;;4.50;;
11084;SDS011;5596;46.826;8.650;2022-12-07T15:05:16;6.13;;;4.30;;
11084;SDS011;5596;46.826;8.650;2022-12-07T15:07:43;7.07;;;4.37;;
11084;SDS011;5596;46.826;8.650;2022-12-07T15:10:13;7.57;;;4.70;;
11084;SDS011;5596;46.826;8.650;2022-12-07T15:12:44;9.00;;;5.17;;
11084;SDS011;5596;46.826;8.650;2022-12-07T15:15:12;9.10;;;5.97;;
11084;SDS011;5596;46.826;8.650;2022-12-07T15:17:40;7.30;;;4.57;;
11084;SDS011;5596;46.826;8.650;2022-12-07T15:20:10;4.80;;;3.80;;
11084;SDS011;5596;46.826;8.650;2022-12-07T15:22:38;9.03;;;4.50;;
11084;SDS011;5596;46.826;8.650;2022-12-07T15:25:06;8.10;;;4.37;;
11084;SDS011;5596;46.826;8.650;2022-12-07T15:27:35;6.07;;;4.20;;
11084;SDS011;5596;46.826;8.650;2022-12-07T15:30:02;6.30;;;3.87;;
11084;SDS011;5596;46.826;8.650;2022-12-07T15:32:32;6.00;;;4.10;;
11084;SDS011;5596;46.826;8.650;2022-12-07T15:34:59;5.97;;;3.67;;
11084;SDS011;5596;46.826;8.650;2022-12-07T15:37:28;8.23;;;3.90;;
11084;SDS011;5596;46.826;8.650;2022-12-07T15:39:55;5.27;;;3.57;;
11084;SDS011;5596;46.826;8.650;2022-12-07T15:42:23;6.40;;;3.57;;
11084;SDS011;5596;46.826;8.650;2022-12-07T15:44:50;5.10;;;3.60;;
11084;SDS011;5596;46.826;8.650;2022-12-07T15:47:29;6.83;;;3.80;;
11084;SDS011;5596;46.826;8.650;2022-12-07T15:50:01;5.87;;;3.57;;
11084;SDS011;5596;46.826;8.650;2022-12-07T15:52:30;6.60;;;4.57;;
11084;SDS011;5596;46.826;8.650;2022-12-07T15:54:58;7.73;;;4.33;;
11084;SDS011;5596;46.826;8.650;2022-12-07T15:57:27;6.23;;;4.43;;
11084;SDS011;5596;46.826;8.650;2022-12-07T15:59:55;8.93;;;5.17;;
11084;SDS011;5596;46.826;8.650;2022-12-07T16:02:22;7.00;;;4.63;;
11084;SDS011;5596;46.826;8.650;2022-12-07T16:04:49;6.03;;;4.10;;